sensor_id;sensor_type;location;lat;lon;timestamp;P1;durP1;ratioP1;P2;durP2;ratioP2
16665;SDS011;8446;50.998;6.250;2022-11-20T00:01:05;22.50;;;11.05;;
16665;SDS011;8446;50.998;6.250;2022-11-20T00:03:32;21.10;;;11.60;;
16665;SDS011;8446;50.998;6.250;2022-11-20T00:06:00;22.77;;;11.38;;
16665;SDS011;8446;50.998;6.250;2022-11-20T00:08:27;21.42;;;12.15;;
16665;SDS011;8446;50.998;6.250;2022-11-20T00:10:55;24.65;;;13.02;;
16665;SDS011;8446;50.998;6.250;2022-11-20T00:13:23;22.50;;;11.85;;
16665;SDS011;8446;50.998;6.250;2022-11-20T00:15:56;22.63;;;11.23;;
16665;SDS011;8446;50.998;6.250;2022-11-20T00:18:23;21.73;;;11.48;;
16665;SDS011;8446;50.998;6.250;2022-11-20T00:20:50;21.75;;;12.32;;
16665;SDS011;8446;50.998;6.250;2022-11-20T00:23:17;20.02;;;12.38;;
16665;SDS011;8446;50.998;6.250;2022-11-20T00:25:45;16.90;;;10.55;;
16665;SDS011;8446;50.998;6.250;2022-11-20T00:28:14;19.25;;;11.63;;
16665;SDS011;8446;50.998;6.250;2022-11-20T00:30:41;21.20;;;12.48;;
16665;SDS011;8446;50.998;6.250;2022-11-20T00:33:08;18.27;;;11.18;;
16665;SDS011;8446;50.998;6.250;2022-11-20T00:35:35;20.65;;;11.05;;
16665;SDS011;8446;50.998;6.250;2022-11-20T00:38:02;23.25;;;12.45;;
16665;SDS011;8446;50.998;6.250;2022-11-20T00:40:30;19.92;;;11.05;;
16665;SDS011;8446;50.998;6.250;2022-11-20T00:42:57;19.38;;;10.90;;
16665;SDS011;8446;50.998;6.250;2022-11-20T00:45:25;18.35;;;10.77;;
16665;SDS011;8446;50.998;6.250;2022-11-20T00:47:53;22.73;;;12.63;;
16665;SDS011;8446;50.998;6.250;2022-11-20T00:50:20;18.92;;;10.80;;
16665;SDS011;8446;50.998;6.250;2022-11-20T00:52:47;31.27;;;11.35;;
16665;SDS011;8446;50.998;6.250;2022-11-20T00:55:14;19.30;;;10.70;;
16665;SDS011;8446;50.998;6.250;2022-11-20T00:57:41;16.52;;;9.50;;
16665;SDS011;8446;50.998;6.250;2022-11-20T01:00:09;19.00;;;11.35;;
16665;SDS011;8446;50.998;6.250;2022-11-20T01:02:37;18.10;;;11.10;;
16665;SDS011;8446;50.998;6.250;2022-11-20T01:05:05;23.65;;;12.15;;
16665;SDS011;8446;50.998;6.250;2022-11-20T01:07:32;24.13;;;10.98;;
16665;SDS011;8446;50.998;6.250;2022-11-20T01:09:59;20.08;;;12.02;;
16665;SDS011;8446;50.998;6.250;2022-11-20T01:12:26;19.35;;;10.80;;
16665;SDS011;8446;50.998;6.250;2022-11-20T01:14:53;21.27;;;11.77;;
16665;SDS011;8446;50.998;6.250;2022-11-20T01:17:21;18.40;;;10.00;;
16665;SDS011;8446;50.998;6.250;2022-11-20T01:19:49;19.58;;;10.98;;
16665;SDS011;8446;50.998;6.250;2022-11-20T01:22:17;18.80;;;10.85;;
16665;SDS011;8446;50.998;6.250;2022-11-20T01:24:44;21.52;;;10.10;;
16665;SDS011;8446;50.998;6.250;2022-11-20T01:27:11;24.63;;;12.00;;
16665;SDS011;8446;50.998;6.250;2022-11-20T01:29:38;16.63;;;10.18;;
16665;SDS011;8446;50.998;6.250;2022-11-20T01:32:05;22.63;;;11.35;;
16665;SDS011;8446;50.998;6.250;2022-11-20T01:34:32;22.08;;;11.68;;
16665;SDS011;8446;50.998;6.250;2022-11-20T01:37:01;19.50;;;11.38;;
16665;SDS011;8446;50.998;6.250;2022-11-20T01:39:28;29.92;;;11.63;;
16665;SDS011;8446;50.998;6.250;2022-11-20T01:41:56;18.73;;;10.48;;
16665;SDS011;8446;50.998;6.250;2022-11-20T01:44:43;20.60;;;12.15;;
16665;SDS011;8446;50.998;6.250;2022-11-20T01:47:12;20.23;;;11.55;;
16665;SDS011;8446;50.998;6.250;2022-11-20T01:49:41;21.95;;;12.10;;
16665;SDS011;8446;50.998;6.250;2022-11-20T01:52:12;21.70;;;12.73;;
16665;SDS011;8446;50.998;6.250;2022-11-20T01:54:42;23.70;;;12.40;;
16665;SDS011;8446;50.998;6.250;2022-11-20T01:57:11;23.27;;;12.07;;
16665;SDS011;8446;50.998;6.250;2022-11-20T01:59:39;18.60;;;11.50;;
16665;SDS011;8446;50.998;6.250;2022-11-20T02:02:07;20.35;;;11.27;;
16665;SDS011;8446;50.998;6.250;2022-11-20T02:04:34;20.88;;;11.43;;
16665;SDS011;8446;50.998;6.250;2022-11-20T02:07:02;21.35;;;11.32;;
16665;SDS011;8446;50.998;6.250;2022-11-20T02:09:32;26.75;;;12.10;;
16665;SDS011;8446;50.998;6.250;2022-11-20T02:11:59;20.15;;;11.38;;
16665;SDS011;8446;50.998;6.250;2022-11-20T02:14:28;23.27;;;11.27;;
16665;SDS011;8446;50.998;6.250;2022-11-20T02:16:54;25.60;;;11.35;;
16665;SDS011;8446;50.998;6.250;2022-11-20T02:19:22;21.77;;;11.25;;
16665;SDS011;8446;50.998;6.250;2022-11-20T02:21:52;21.58;;;12.43;;
16665;SDS011;8446;50.998;6.250;2022-11-20T02:24:24;20.00;;;10.57;;
16665;SDS011;8446;50.998;6.250;2022-11-20T02:26:52;20.02;;;11.15;;
16665;SDS011;8446;50.998;6.250;2022-11-20T02:29:23;18.90;;;11.80;;
16665;SDS011;8446;50.998;6.250;2022-11-20T02:31:51;21.35;;;10.57;;
16665;SDS011;8446;50.998;6.250;2022-11-20T02:34:20;19.73;;;11.32;;
16665;SDS011;8446;50.998;6.250;2022-11-20T02:36:47;23.40;;;12.05;;
16665;SDS011;8446;50.998;6.250;2022-11-20T02:39:15;21.08;;;11.20;;
16665;SDS011;8446;50.998;6.250;2022-11-20T02:41:44;30.05;;;15.55;;
16665;SDS011;8446;50.998;6.250;2022-11-20T02:44:11;21.58;;;12.20;;
16665;SDS011;8446;50.998;6.250;2022-11-20T02:46:38;21.10;;;12.43;;
16665;SDS011;8446;50.998;6.250;2022-11-20T02:49:06;22.38;;;11.50;;
16665;SDS011;8446;50.998;6.250;2022-11-20T02:51:33;21.70;;;11.50;;
16665;SDS011;8446;50.998;6.250;2022-11-20T02:54:00;20.90;;;11.68;;
16665;SDS011;8446;50.998;6.250;2022-11-20T02:56:27;24.08;;;12.02;;
16665;SDS011;8446;50.998;6.250;2022-11-20T02:58:56;20.45;;;12.18;;
16665;SDS011;8446;50.998;6.250;2022-11-20T03:01:23;21.70;;;11.15;;
16665;SDS011;8446;50.998;6.250;2022-11-20T03:03:50;22.52;;;11.90;;
16665;SDS011;8446;50.998;6.250;2022-11-20T03:06:19;20.30;;;11.98;;
16665;SDS011;8446;50.998;6.250;2022-11-20T03:08:46;20.10;;;11.90;;
16665;SDS011;8446;50.998;6.250;2022-11-20T03:11:13;23.67;;;12.02;;
16665;SDS011;8446;50.998;6.250;2022-11-20T03:13:41;23.30;;;12.27;;
16665;SDS011;8446;50.998;6.250;2022-11-20T03:16:11;22.67;;;11.40;;
16665;SDS011;8446;50.998;6.250;2022-11-20T03:18:38;25.52;;;12.48;;
16665;SDS011;8446;50.998;6.250;2022-11-20T03:21:06;25.73;;;12.77;;
16665;SDS011;8446;50.998;6.250;2022-11-20T03:23:33;21.45;;;11.90;;
16665;SDS011;8446;50.998;6.250;2022-11-20T03:26:08;25.90;;;12.43;;
16665;SDS011;8446;50.998;6.250;2022-11-20T03:28:35;23.30;;;11.77;;
16665;SDS011;8446;50.998;6.250;2022-11-20T03:31:06;20.10;;;11.80;;
16665;SDS011;8446;50.998;6.250;2022-11-20T03:33:35;25.02;;;12.75;;
16665;SDS011;8446;50.998;6.250;2022-11-20T03:36:03;31.95;;;14.07;;
16665;SDS011;8446;50.998;6.250;2022-11-20T03:38:30;20.45;;;11.82;;
16665;SDS011;8446;50.998;6.250;2022-11-20T03:40:58;26.63;;;13.13;;
16665;SDS011;8446;50.998;6.250;2022-11-20T03:43:26;24.05;;;12.48;;
16665;SDS011;8446;50.998;6.250;2022-11-20T03:45:54;19.17;;;11.65;;
16665;SDS011;8446;50.998;6.250;2022-11-20T03:48:21;25.02;;;12.27;;
16665;SDS011;8446;50.998;6.250;2022-11-20T03:50:49;25.55;;;12.90;;
16665;SDS011;8446;50.998;6.250;2022-11-20T03:53:17;26.05;;;12.07;;
16665;SDS011;8446;50.998;6.250;2022-11-20T03:55:44;27.08;;;11.73;;
16665;SDS011;8446;50.998;6.250;2022-11-20T03:58:11;24.67;;;13.43;;
16665;SDS011;8446;50.998;6.250;2022-11-20T04:00:38;20.73;;;11.27;;
16665;SDS011;8446;50.998;6.250;2022-11-20T04:03:05;22.23;;;12.63;;
16665;SDS011;8446;50.998;6.250;2022-11-20T04:05:33;28.10;;;12.35;;
16665;SDS011;8446;50.998;6.250;2022-11-20T04:08:02;27.30;;;11.05;;
16665;SDS011;8446;50.998;6.250;2022-11-20T04:10:29;22.40;;;12.35;;
16665;SDS011;8446;50.998;6.250;2022-11-20T04:12:56;20.17;;;11.10;;
16665;SDS011;8446;50.998;6.250;2022-11-20T04:15:23;21.33;;;11.95;;
16665;SDS011;8446;50.998;6.250;2022-11-20T04:17:50;22.13;;;12.52;;
16665;SDS011;8446;50.998;6.250;2022-11-20T04:20:17;28.77;;;11.52;;
16665;SDS011;8446;50.998;6.250;2022-11-20T04:22:45;21.77;;;11.95;;
16665;SDS011;8446;50.998;6.250;2022-11-20T04:25:14;24.73;;;11.50;;
16665;SDS011;8446;50.998;6.250;2022-11-20T04:27:41;27.98;;;12.38;;
16665;SDS011;8446;50.998;6.250;2022-11-20T04:30:08;19.65;;;11.73;;
16665;SDS011;8446;50.998;6.250;2022-11-20T04:32:35;17.42;;;10.90;;
16665;SDS011;8446;50.998;6.250;2022-11-20T04:35:03;21.95;;;12.35;;
16665;SDS011;8446;50.998;6.250;2022-11-20T04:37:30;23.58;;;13.10;;
16665;SDS011;8446;50.998;6.250;2022-11-20T04:39:57;22.85;;;12.32;;
16665;SDS011;8446;50.998;6.250;2022-11-20T04:42:26;23.92;;;12.07;;
16665;SDS011;8446;50.998;6.250;2022-11-20T04:44:56;25.52;;;12.95;;
16665;SDS011;8446;50.998;6.250;2022-11-20T04:47:23;24.88;;;12.00;;
16665;SDS011;8446;50.998;6.250;2022-11-20T04:49:51;21.38;;;11.75;;
16665;SDS011;8446;50.998;6.250;2022-11-20T04:52:18;23.58;;;11.50;;
16665;SDS011;8446;50.998;6.250;2022-11-20T04:54:45;20.30;;;11.57;;
16665;SDS011;8446;50.998;6.250;2022-11-20T04:57:13;21.20;;;11.77;;
16665;SDS011;8446;50.998;6.250;2022-11-20T04:59:42;20.50;;;11.43;;
16665;SDS011;8446;50.998;6.250;2022-11-20T05:02:09;24.15;;;12.07;;
16665;SDS011;8446;50.998;6.250;2022-11-20T05:04:36;22.42;;;12.68;;
16665;SDS011;8446;50.998;6.250;2022-11-20T05:07:03;24.58;;;12.43;;
16665;SDS011;8446;50.998;6.250;2022-11-20T05:09:31;20.80;;;11.88;;
16665;SDS011;8446;50.998;6.250;2022-11-20T05:11:58;24.17;;;12.30;;
16665;SDS011;8446;50.998;6.250;2022-11-20T05:14:25;21.25;;;12.52;;
16665;SDS011;8446;50.998;6.250;2022-11-20T05:16:53;22.60;;;11.73;;
16665;SDS011;8446;50.998;6.250;2022-11-20T05:19:20;19.02;;;11.40;;
16665;SDS011;8446;50.998;6.250;2022-11-20T05:21:48;20.80;;;11.85;;
16665;SDS011;8446;50.998;6.250;2022-11-20T05:24:15;20.75;;;11.52;;
16665;SDS011;8446;50.998;6.250;2022-11-20T05:26:42;23.25;;;11.30;;
16665;SDS011;8446;50.998;6.250;2022-11-20T05:29:10;25.95;;;13.52;;
16665;SDS011;8446;50.998;6.250;2022-11-20T05:31:38;18.13;;;11.02;;
16665;SDS011;8446;50.998;6.250;2022-11-20T05:34:07;23.00;;;13.05;;
16665;SDS011;8446;50.998;6.250;2022-11-20T05:36:34;18.83;;;10.60;;
16665;SDS011;8446;50.998;6.250;2022-11-20T05:39:01;22.52;;;12.40;;
16665;SDS011;8446;50.998;6.250;2022-11-20T05:41:29;24.38;;;12.60;;
16665;SDS011;8446;50.998;6.250;2022-11-20T05:43:56;24.88;;;12.10;;
16665;SDS011;8446;50.998;6.250;2022-11-20T05:46:24;25.98;;;11.93;;
16665;SDS011;8446;50.998;6.250;2022-11-20T05:48:51;20.35;;;11.77;;
16665;SDS011;8446;50.998;6.250;2022-11-20T05:51:20;19.15;;;11.63;;
16665;SDS011;8446;50.998;6.250;2022-11-20T05:53:47;29.23;;;13.02;;
16665;SDS011;8446;50.998;6.250;2022-11-20T05:56:15;23.25;;;12.43;;
16665;SDS011;8446;50.998;6.250;2022-11-20T05:58:43;24.27;;;11.65;;
16665;SDS011;8446;50.998;6.250;2022-11-20T06:01:11;25.13;;;11.55;;
16665;SDS011;8446;50.998;6.250;2022-11-20T06:03:38;22.08;;;12.30;;
16665;SDS011;8446;50.998;6.250;2022-11-20T06:06:07;24.00;;;13.00;;
16665;SDS011;8446;50.998;6.250;2022-11-20T06:08:36;27.23;;;14.13;;
16665;SDS011;8446;50.998;6.250;2022-11-20T06:11:04;23.65;;;12.10;;
16665;SDS011;8446;50.998;6.250;2022-11-20T06:13:31;25.13;;;12.45;;
16665;SDS011;8446;50.998;6.250;2022-11-20T06:15:58;23.98;;;12.80;;
16665;SDS011;8446;50.998;6.250;2022-11-20T06:18:25;22.83;;;13.27;;
16665;SDS011;8446;50.998;6.250;2022-11-20T06:20:59;21.80;;;12.95;;
16665;SDS011;8446;50.998;6.250;2022-11-20T06:23:27;22.17;;;12.52;;
16665;SDS011;8446;50.998;6.250;2022-11-20T06:25:56;23.95;;;12.75;;
16665;SDS011;8446;50.998;6.250;2022-11-20T06:28:23;22.23;;;13.45;;
16665;SDS011;8446;50.998;6.250;2022-11-20T06:30:50;24.65;;;12.93;;
16665;SDS011;8446;50.998;6.250;2022-11-20T06:33:17;24.38;;;12.88;;
16665;SDS011;8446;50.998;6.250;2022-11-20T06:35:44;26.00;;;12.93;;
16665;SDS011;8446;50.998;6.250;2022-11-20T06:38:11;28.00;;;12.65;;
16665;SDS011;8446;50.998;6.250;2022-11-20T06:40:39;23.92;;;12.70;;
16665;SDS011;8446;50.998;6.250;2022-11-20T06:43:08;28.20;;;13.63;;
16665;SDS011;8446;50.998;6.250;2022-11-20T06:45:35;22.48;;;12.65;;
16665;SDS011;8446;50.998;6.250;2022-11-20T06:48:02;29.95;;;14.52;;
16665;SDS011;8446;50.998;6.250;2022-11-20T06:50:30;45.72;;;16.70;;
16665;SDS011;8446;50.998;6.250;2022-11-20T06:52:59;54.13;;;18.35;;
16665;SDS011;8446;50.998;6.250;2022-11-20T06:55:27;55.83;;;17.70;;
16665;SDS011;8446;50.998;6.250;2022-11-20T06:57:54;56.25;;;18.02;;
16665;SDS011;8446;50.998;6.250;2022-11-20T07:00:23;44.42;;;16.30;;
16665;SDS011;8446;50.998;6.250;2022-11-20T07:02:50;44.22;;;16.70;;
16665;SDS011;8446;50.998;6.250;2022-11-20T07:05:17;47.92;;;16.75;;
16665;SDS011;8446;50.998;6.250;2022-11-20T07:07:44;48.92;;;17.45;;
16665;SDS011;8446;50.998;6.250;2022-11-20T07:10:11;35.38;;;15.70;;
16665;SDS011;8446;50.998;6.250;2022-11-20T07:12:38;33.35;;;14.93;;
16665;SDS011;8446;50.998;6.250;2022-11-20T07:15:06;37.15;;;15.68;;
16665;SDS011;8446;50.998;6.250;2022-11-20T07:17:34;36.83;;;15.48;;
16665;SDS011;8446;50.998;6.250;2022-11-20T07:20:02;44.00;;;16.20;;
16665;SDS011;8446;50.998;6.250;2022-11-20T07:22:29;35.83;;;15.30;;
16665;SDS011;8446;50.998;6.250;2022-11-20T07:24:56;38.72;;;15.45;;
16665;SDS011;8446;50.998;6.250;2022-11-20T07:27:23;31.20;;;14.75;;
16665;SDS011;8446;50.998;6.250;2022-11-20T07:29:50;43.08;;;18.88;;
16665;SDS011;8446;50.998;6.250;2022-11-20T07:32:17;39.25;;;16.35;;
16665;SDS011;8446;50.998;6.250;2022-11-20T07:34:46;40.22;;;15.93;;
16665;SDS011;8446;50.998;6.250;2022-11-20T07:37:13;47.80;;;17.50;;
16665;SDS011;8446;50.998;6.250;2022-11-20T07:39:43;49.53;;;17.38;;
16665;SDS011;8446;50.998;6.250;2022-11-20T07:42:23;37.67;;;16.77;;
16665;SDS011;8446;50.998;6.250;2022-11-20T07:44:51;38.70;;;16.27;;
16665;SDS011;8446;50.998;6.250;2022-11-20T07:47:18;46.42;;;17.10;;
16665;SDS011;8446;50.998;6.250;2022-11-20T07:49:47;58.80;;;19.23;;
16665;SDS011;8446;50.998;6.250;2022-11-20T07:52:14;51.97;;;18.92;;
16665;SDS011;8446;50.998;6.250;2022-11-20T07:54:41;43.30;;;17.20;;
16665;SDS011;8446;50.998;6.250;2022-11-20T07:57:10;51.90;;;17.50;;
16665;SDS011;8446;50.998;6.250;2022-11-20T07:59:37;51.88;;;18.25;;
16665;SDS011;8446;50.998;6.250;2022-11-20T08:02:05;46.90;;;19.45;;
16665;SDS011;8446;50.998;6.250;2022-11-20T08:04:32;53.15;;;18.95;;
16665;SDS011;8446;50.998;6.250;2022-11-20T08:07:00;49.95;;;17.67;;
16665;SDS011;8446;50.998;6.250;2022-11-20T08:09:27;42.88;;;18.27;;
16665;SDS011;8446;50.998;6.250;2022-11-20T08:11:54;44.35;;;17.40;;
16665;SDS011;8446;50.998;6.250;2022-11-20T08:14:39;40.47;;;15.88;;
16665;SDS011;8446;50.998;6.250;2022-11-20T08:17:06;42.78;;;16.70;;
16665;SDS011;8446;50.998;6.250;2022-11-20T08:19:33;39.15;;;16.48;;
16665;SDS011;8446;50.998;6.250;2022-11-20T08:22:02;33.17;;;15.13;;
16665;SDS011;8446;50.998;6.250;2022-11-20T08:24:29;34.05;;;15.02;;
16665;SDS011;8446;50.998;6.250;2022-11-20T08:26:56;29.58;;;16.27;;
16665;SDS011;8446;50.998;6.250;2022-11-20T08:29:24;29.25;;;14.93;;
16665;SDS011;8446;50.998;6.250;2022-11-20T08:31:51;32.28;;;14.68;;
16665;SDS011;8446;50.998;6.250;2022-11-20T08:34:18;32.75;;;15.43;;
16665;SDS011;8446;50.998;6.250;2022-11-20T08:36:45;26.58;;;13.43;;
16665;SDS011;8446;50.998;6.250;2022-11-20T08:39:14;28.58;;;12.35;;
16665;SDS011;8446;50.998;6.250;2022-11-20T08:41:41;36.47;;;14.40;;
16665;SDS011;8446;50.998;6.250;2022-11-20T08:44:08;25.48;;;12.75;;
16665;SDS011;8446;50.998;6.250;2022-11-20T08:46:36;34.03;;;14.45;;
16665;SDS011;8446;50.998;6.250;2022-11-20T08:49:03;31.05;;;14.68;;
16665;SDS011;8446;50.998;6.250;2022-11-20T08:51:30;33.58;;;14.20;;
16665;SDS011;8446;50.998;6.250;2022-11-20T08:53:57;28.88;;;14.75;;
16665;SDS011;8446;50.998;6.250;2022-11-20T08:56:26;34.00;;;13.93;;
16665;SDS011;8446;50.998;6.250;2022-11-20T08:58:53;29.85;;;13.70;;
16665;SDS011;8446;50.998;6.250;2022-11-20T09:01:21;26.10;;;12.30;;
16665;SDS011;8446;50.998;6.250;2022-11-20T09:03:48;36.38;;;14.40;;
16665;SDS011;8446;50.998;6.250;2022-11-20T09:06:15;29.30;;;13.77;;
16665;SDS011;8446;50.998;6.250;2022-11-20T09:08:43;33.08;;;13.65;;
16665;SDS011;8446;50.998;6.250;2022-11-20T09:11:10;26.45;;;11.98;;
16665;SDS011;8446;50.998;6.250;2022-11-20T09:13:38;27.15;;;11.75;;
16665;SDS011;8446;50.998;6.250;2022-11-20T09:16:06;25.27;;;11.48;;
16665;SDS011;8446;50.998;6.250;2022-11-20T09:18:34;22.77;;;10.60;;
16665;SDS011;8446;50.998;6.250;2022-11-20T09:21:02;22.75;;;10.63;;
16665;SDS011;8446;50.998;6.250;2022-11-20T09:23:31;22.45;;;10.93;;
16665;SDS011;8446;50.998;6.250;2022-11-20T09:26:01;22.67;;;12.20;;
16665;SDS011;8446;50.998;6.250;2022-11-20T09:28:28;19.52;;;10.55;;
16665;SDS011;8446;50.998;6.250;2022-11-20T09:30:56;20.25;;;11.65;;
16665;SDS011;8446;50.998;6.250;2022-11-20T09:33:23;22.50;;;11.73;;
16665;SDS011;8446;50.998;6.250;2022-11-20T09:35:50;22.55;;;12.18;;
16665;SDS011;8446;50.998;6.250;2022-11-20T09:38:17;25.52;;;11.65;;
16665;SDS011;8446;50.998;6.250;2022-11-20T09:40:46;25.40;;;11.60;;
16665;SDS011;8446;50.998;6.250;2022-11-20T09:43:15;25.90;;;12.45;;
16665;SDS011;8446;50.998;6.250;2022-11-20T09:45:47;25.17;;;12.25;;
16665;SDS011;8446;50.998;6.250;2022-11-20T09:48:20;26.40;;;12.70;;
16665;SDS011;8446;50.998;6.250;2022-11-20T09:50:51;27.20;;;13.52;;
16665;SDS011;8446;50.998;6.250;2022-11-20T09:53:24;28.55;;;13.18;;
16665;SDS011;8446;50.998;6.250;2022-11-20T09:55:54;28.00;;;13.60;;
16665;SDS011;8446;50.998;6.250;2022-11-20T09:58:25;25.98;;;12.07;;
16665;SDS011;8446;50.998;6.250;2022-11-20T10:00:54;29.95;;;13.20;;
16665;SDS011;8446;50.998;6.250;2022-11-20T10:03:26;25.65;;;11.73;;
16665;SDS011;8446;50.998;6.250;2022-11-20T10:05:56;31.15;;;12.50;;
16665;SDS011;8446;50.998;6.250;2022-11-20T10:08:25;24.33;;;12.98;;
16665;SDS011;8446;50.998;6.250;2022-11-20T10:10:56;27.65;;;12.90;;
16665;SDS011;8446;50.998;6.250;2022-11-20T10:13:31;27.50;;;12.10;;
16665;SDS011;8446;50.998;6.250;2022-11-20T10:16:03;38.13;;;15.15;;
16665;SDS011;8446;50.998;6.250;2022-11-20T10:18:39;30.85;;;14.00;;
16665;SDS011;8446;50.998;6.250;2022-11-20T10:21:10;29.17;;;13.13;;
16665;SDS011;8446;50.998;6.250;2022-11-20T10:23:47;28.23;;;13.70;;
16665;SDS011;8446;50.998;6.250;2022-11-20T10:26:17;33.08;;;14.38;;
16665;SDS011;8446;50.998;6.250;2022-11-20T10:28:46;29.70;;;13.82;;
16665;SDS011;8446;50.998;6.250;2022-11-20T10:31:17;28.58;;;12.93;;
16665;SDS011;8446;50.998;6.250;2022-11-20T10:33:53;34.97;;;16.13;;
16665;SDS011;8446;50.998;6.250;2022-11-20T10:36:22;30.27;;;15.30;;
16665;SDS011;8446;50.998;6.250;2022-11-20T10:38:51;29.90;;;13.63;;
16665;SDS011;8446;50.998;6.250;2022-11-20T10:41:23;25.10;;;13.90;;
16665;SDS011;8446;50.998;6.250;2022-11-20T10:43:52;37.15;;;16.50;;
16665;SDS011;8446;50.998;6.250;2022-11-20T10:46:21;24.15;;;12.57;;
16665;SDS011;8446;50.998;6.250;2022-11-20T10:48:48;22.05;;;12.90;;
16665;SDS011;8446;50.998;6.250;2022-11-20T10:51:21;34.05;;;15.38;;
16665;SDS011;8446;50.998;6.250;2022-11-20T10:53:58;35.15;;;15.82;;
16665;SDS011;8446;50.998;6.250;2022-11-20T10:56:30;33.00;;;14.52;;
16665;SDS011;8446;50.998;6.250;2022-11-20T11:01:49;29.88;;;14.48;;
16665;SDS011;8446;50.998;6.250;2022-11-20T11:04:28;30.17;;;16.13;;
16665;SDS011;8446;50.998;6.250;2022-11-20T11:07:01;36.15;;;15.55;;
16665;SDS011;8446;50.998;6.250;2022-11-20T11:09:32;33.30;;;14.35;;
16665;SDS011;8446;50.998;6.250;2022-11-20T11:12:01;30.20;;;13.30;;
16665;SDS011;8446;50.998;6.250;2022-11-20T11:14:28;26.13;;;13.02;;
16665;SDS011;8446;50.998;6.250;2022-11-20T11:16:55;28.45;;;13.70;;
16665;SDS011;8446;50.998;6.250;2022-11-20T11:19:23;36.38;;;16.00;;
16665;SDS011;8446;50.998;6.250;2022-11-20T11:21:51;34.50;;;15.70;;
16665;SDS011;8446;50.998;6.250;2022-11-20T11:24:21;32.00;;;14.18;;
16665;SDS011;8446;50.998;6.250;2022-11-20T11:26:52;24.90;;;12.85;;
16665;SDS011;8446;50.998;6.250;2022-11-20T11:29:22;27.38;;;13.98;;
16665;SDS011;8446;50.998;6.250;2022-11-20T11:32:02;24.10;;;12.80;;
16665;SDS011;8446;50.998;6.250;2022-11-20T11:34:29;31.35;;;14.95;;
16665;SDS011;8446;50.998;6.250;2022-11-20T11:36:57;31.20;;;15.07;;
16665;SDS011;8446;50.998;6.250;2022-11-20T11:39:26;32.08;;;15.25;;
16665;SDS011;8446;50.998;6.250;2022-11-20T11:41:54;30.83;;;14.00;;
16665;SDS011;8446;50.998;6.250;2022-11-20T11:44:22;30.25;;;14.10;;
16665;SDS011;8446;50.998;6.250;2022-11-20T11:47:08;27.67;;;14.65;;
16665;SDS011;8446;50.998;6.250;2022-11-20T11:49:36;32.20;;;14.60;;
16665;SDS011;8446;50.998;6.250;2022-11-20T11:52:05;31.42;;;13.15;;
16665;SDS011;8446;50.998;6.250;2022-11-20T11:54:37;30.38;;;13.57;;
16665;SDS011;8446;50.998;6.250;2022-11-20T11:57:10;27.98;;;13.73;;
16665;SDS011;8446;50.998;6.250;2022-11-20T11:59:41;27.77;;;12.23;;
16665;SDS011;8446;50.998;6.250;2022-11-20T12:02:13;27.73;;;12.43;;
16665;SDS011;8446;50.998;6.250;2022-11-20T12:04:43;25.52;;;13.48;;
16665;SDS011;8446;50.998;6.250;2022-11-20T12:07:12;30.40;;;13.15;;
16665;SDS011;8446;50.998;6.250;2022-11-20T12:09:43;27.63;;;12.82;;
16665;SDS011;8446;50.998;6.250;2022-11-20T12:12:13;29.20;;;12.90;;
16665;SDS011;8446;50.998;6.250;2022-11-20T12:14:44;27.17;;;13.48;;
16665;SDS011;8446;50.998;6.250;2022-11-20T12:17:14;30.02;;;13.20;;
16665;SDS011;8446;50.998;6.250;2022-11-20T12:19:42;27.98;;;12.93;;
16665;SDS011;8446;50.998;6.250;2022-11-20T12:22:12;28.52;;;13.45;;
16665;SDS011;8446;50.998;6.250;2022-11-20T12:24:49;32.22;;;13.93;;
16665;SDS011;8446;50.998;6.250;2022-11-20T12:30:07;30.70;;;12.82;;
16665;SDS011;8446;50.998;6.250;2022-11-20T12:32:44;27.02;;;13.45;;
16665;SDS011;8446;50.998;6.250;2022-11-20T12:35:21;28.60;;;13.30;;
16665;SDS011;8446;50.998;6.250;2022-11-20T12:37:52;28.65;;;13.85;;
16665;SDS011;8446;50.998;6.250;2022-11-20T12:40:30;33.20;;;15.15;;
16665;SDS011;8446;50.998;6.250;2022-11-20T12:43:05;46.55;;;15.38;;
16665;SDS011;8446;50.998;6.250;2022-11-20T12:48:47;35.63;;;15.40;;
16665;SDS011;8446;50.998;6.250;2022-11-20T12:51:38;34.72;;;16.90;;
16665;SDS011;8446;50.998;6.250;2022-11-20T12:54:26;31.83;;;16.50;;
16665;SDS011;8446;50.998;6.250;2022-11-20T12:56:59;33.63;;;14.68;;
16665;SDS011;8446;50.998;6.250;2022-11-20T12:59:32;32.03;;;17.15;;
16665;SDS011;8446;50.998;6.250;2022-11-20T13:02:05;31.73;;;15.05;;
16665;SDS011;8446;50.998;6.250;2022-11-20T13:04:50;30.88;;;15.27;;
16665;SDS011;8446;50.998;6.250;2022-11-20T13:07:21;31.95;;;15.15;;
16665;SDS011;8446;50.998;6.250;2022-11-20T13:09:49;35.65;;;14.70;;
16665;SDS011;8446;50.998;6.250;2022-11-20T13:12:19;29.73;;;14.57;;
16665;SDS011;8446;50.998;6.250;2022-11-20T13:14:51;33.00;;;16.60;;
16665;SDS011;8446;50.998;6.250;2022-11-20T13:17:21;33.35;;;15.32;;
16665;SDS011;8446;50.998;6.250;2022-11-20T13:19:52;31.27;;;14.43;;
16665;SDS011;8446;50.998;6.250;2022-11-20T13:22:26;29.98;;;14.60;;
16665;SDS011;8446;50.998;6.250;2022-11-20T13:24:53;29.27;;;15.98;;
16665;SDS011;8446;50.998;6.250;2022-11-20T13:27:22;29.40;;;15.05;;
16665;SDS011;8446;50.998;6.250;2022-11-20T13:29:59;29.65;;;14.57;;
16665;SDS011;8446;50.998;6.250;2022-11-20T13:32:26;30.45;;;15.38;;
16665;SDS011;8446;50.998;6.250;2022-11-20T13:34:58;34.90;;;13.77;;
16665;SDS011;8446;50.998;6.250;2022-11-20T13:37:29;32.50;;;15.35;;
16665;SDS011;8446;50.998;6.250;2022-11-20T13:42:54;31.20;;;14.32;;
16665;SDS011;8446;50.998;6.250;2022-11-20T13:45:23;34.30;;;14.98;;
16665;SDS011;8446;50.998;6.250;2022-11-20T13:47:51;30.98;;;14.48;;
16665;SDS011;8446;50.998;6.250;2022-11-20T13:50:19;31.67;;;15.60;;
16665;SDS011;8446;50.998;6.250;2022-11-20T13:52:49;32.58;;;15.18;;
16665;SDS011;8446;50.998;6.250;2022-11-20T13:55:19;32.60;;;15.43;;
16665;SDS011;8446;50.998;6.250;2022-11-20T13:57:59;28.70;;;14.57;;
16665;SDS011;8446;50.998;6.250;2022-11-20T14:00:30;28.55;;;15.00;;
16665;SDS011;8446;50.998;6.250;2022-11-20T14:03:07;31.70;;;15.10;;
16665;SDS011;8446;50.998;6.250;2022-11-20T14:05:38;28.27;;;13.93;;
16665;SDS011;8446;50.998;6.250;2022-11-20T14:08:11;30.40;;;13.93;;
16665;SDS011;8446;50.998;6.250;2022-11-20T14:10:40;29.02;;;14.60;;
16665;SDS011;8446;50.998;6.250;2022-11-20T14:13:12;44.50;;;15.07;;
16665;SDS011;8446;50.998;6.250;2022-11-20T14:15:42;29.77;;;14.13;;
16665;SDS011;8446;50.998;6.250;2022-11-20T14:18:13;31.35;;;13.57;;
16665;SDS011;8446;50.998;6.250;2022-11-20T14:20:40;29.15;;;14.52;;
16665;SDS011;8446;50.998;6.250;2022-11-20T14:23:09;25.92;;;13.75;;
16665;SDS011;8446;50.998;6.250;2022-11-20T14:25:36;26.83;;;14.65;;
16665;SDS011;8446;50.998;6.250;2022-11-20T14:28:04;33.88;;;15.20;;
16665;SDS011;8446;50.998;6.250;2022-11-20T14:30:37;26.70;;;14.32;;
16665;SDS011;8446;50.998;6.250;2022-11-20T14:33:06;28.55;;;13.85;;
16665;SDS011;8446;50.998;6.250;2022-11-20T14:35:35;22.55;;;11.85;;
16665;SDS011;8446;50.998;6.250;2022-11-20T14:38:03;24.40;;;12.45;;
16665;SDS011;8446;50.998;6.250;2022-11-20T14:40:31;34.33;;;12.68;;
16665;SDS011;8446;50.998;6.250;2022-11-20T14:43:00;25.48;;;13.35;;
16665;SDS011;8446;50.998;6.250;2022-11-20T14:45:27;21.30;;;11.13;;
16665;SDS011;8446;50.998;6.250;2022-11-20T14:47:56;28.90;;;13.30;;
16665;SDS011;8446;50.998;6.250;2022-11-20T14:50:25;25.40;;;11.02;;
16665;SDS011;8446;50.998;6.250;2022-11-20T14:52:53;5.30;;;2.65;;
16665;SDS011;8446;50.998;6.250;2022-11-20T14:55:27;3.30;;;2.05;;
16665;SDS011;8446;50.998;6.250;2022-11-20T14:57:55;6.90;;;1.58;;